sensor_id;sensor_type;location;lat;lon;timestamp;P1;durP1;ratioP1;P2;durP2;ratioP2
3177;SDS011;38141;42.666;23.344;2023-04-15T00:02:14;4.47;;;3.47;;
3177;SDS011;38141;42.666;23.344;2023-04-15T00:04:42;5.70;;;3.77;;
3177;SDS011;38141;42.666;23.344;2023-04-15T00:07:11;5.10;;;3.37;;
3177;SDS011;38141;42.666;23.344;2023-04-15T00:09:38;5.70;;;3.70;;
3177;SDS011;38141;42.666;23.344;2023-04-15T00:12:06;7.00;;;3.70;;
3177;SDS011;38141;42.666;23.344;2023-04-15T00:14:33;5.20;;;3.10;;
3177;SDS011;38141;42.666;23.344;2023-04-15T00:17:00;5.67;;;3.70;;
3177;SDS011;38141;42.666;23.344;2023-04-15T00:19:28;4.57;;;3.70;;
3177;SDS011;38141;42.666;23.344;2023-04-15T00:21:54;4.83;;;3.93;;
3177;SDS011;38141;42.666;23.344;2023-04-15T00:24:23;5.73;;;4.20;;
3177;SDS011;38141;42.666;23.344;2023-04-15T00:26:50;5.17;;;3.80;;
3177;SDS011;38141;42.666;23.344;2023-04-15T00:29:17;5.97;;;4.20;;
3177;SDS011;38141;42.666;23.344;2023-04-15T00:31:43;5.80;;;3.67;;
3177;SDS011;38141;42.666;23.344;2023-04-15T00:34:10;6.57;;;4.20;;
3177;SDS011;38141;42.666;23.344;2023-04-15T00:36:37;6.60;;;4.10;;
3177;SDS011;38141;42.666;23.344;2023-04-15T00:39:04;5.73;;;3.90;;
3177;SDS011;38141;42.666;23.344;2023-04-15T00:41:32;8.10;;;4.90;;
3177;SDS011;38141;42.666;23.344;2023-04-15T00:43:59;6.70;;;4.60;;
3177;SDS011;38141;42.666;23.344;2023-04-15T00:46:27;6.63;;;4.40;;
3177;SDS011;38141;42.666;23.344;2023-04-15T00:48:55;6.63;;;4.00;;
3177;SDS011;38141;42.666;23.344;2023-04-15T00:51:21;4.87;;;4.20;;
3177;SDS011;38141;42.666;23.344;2023-04-15T00:53:48;6.13;;;4.20;;
3177;SDS011;38141;42.666;23.344;2023-04-15T00:56:16;6.20;;;3.87;;
3177;SDS011;38141;42.666;23.344;2023-04-15T00:58:45;5.67;;;4.10;;
3177;SDS011;38141;42.666;23.344;2023-04-15T01:01:13;9.57;;;4.50;;
3177;SDS011;38141;42.666;23.344;2023-04-15T01:03:40;6.83;;;4.73;;
3177;SDS011;38141;42.666;23.344;2023-04-15T01:06:06;9.47;;;5.27;;
3177;SDS011;38141;42.666;23.344;2023-04-15T01:08:33;6.77;;;4.63;;
3177;SDS011;38141;42.666;23.344;2023-04-15T01:11:00;6.80;;;4.97;;
3177;SDS011;38141;42.666;23.344;2023-04-15T01:13:28;6.07;;;4.80;;
3177;SDS011;38141;42.666;23.344;2023-04-15T01:15:57;8.57;;;5.17;;
3177;SDS011;38141;42.666;23.344;2023-04-15T01:18:23;8.87;;;5.63;;
3177;SDS011;38141;42.666;23.344;2023-04-15T01:20:51;9.50;;;6.10;;
3177;SDS011;38141;42.666;23.344;2023-04-15T01:23:18;9.70;;;5.93;;
3177;SDS011;38141;42.666;23.344;2023-04-15T01:25:47;8.40;;;6.07;;
3177;SDS011;38141;42.666;23.344;2023-04-15T01:28:14;9.07;;;6.20;;
3177;SDS011;38141;42.666;23.344;2023-04-15T01:30:41;7.73;;;5.83;;
3177;SDS011;38141;42.666;23.344;2023-04-15T01:33:08;11.97;;;6.37;;
3177;SDS011;38141;42.666;23.344;2023-04-15T01:35:35;9.83;;;5.87;;
3177;SDS011;38141;42.666;23.344;2023-04-15T01:38:04;11.30;;;6.47;;
3177;SDS011;38141;42.666;23.344;2023-04-15T01:40:32;8.63;;;5.50;;
3177;SDS011;38141;42.666;23.344;2023-04-15T01:43:01;8.47;;;5.83;;
3177;SDS011;38141;42.666;23.344;2023-04-15T01:45:28;7.87;;;5.27;;
3177;SDS011;38141;42.666;23.344;2023-04-15T01:47:55;7.43;;;5.63;;
3177;SDS011;38141;42.666;23.344;2023-04-15T01:50:24;7.57;;;5.27;;
3177;SDS011;38141;42.666;23.344;2023-04-15T01:52:51;7.07;;;5.40;;
3177;SDS011;38141;42.666;23.344;2023-04-15T01:55:18;10.93;;;5.70;;
3177;SDS011;38141;42.666;23.344;2023-04-15T01:57:44;7.20;;;5.20;;
3177;SDS011;38141;42.666;23.344;2023-04-15T02:00:13;8.47;;;5.50;;
3177;SDS011;38141;42.666;23.344;2023-04-15T02:02:40;8.00;;;4.90;;
3177;SDS011;38141;42.666;23.344;2023-04-15T02:05:07;8.50;;;4.80;;
3177;SDS011;38141;42.666;23.344;2023-04-15T02:07:35;6.97;;;4.93;;
3177;SDS011;38141;42.666;23.344;2023-04-15T02:10:02;10.23;;;5.67;;
3177;SDS011;38141;42.666;23.344;2023-04-15T02:12:29;10.20;;;5.07;;
3177;SDS011;38141;42.666;23.344;2023-04-15T02:14:56;7.10;;;4.90;;
3177;SDS011;38141;42.666;23.344;2023-04-15T02:17:24;10.70;;;4.83;;
3177;SDS011;38141;42.666;23.344;2023-04-15T02:19:51;7.37;;;4.60;;
3177;SDS011;38141;42.666;23.344;2023-04-15T02:22:17;9.63;;;4.70;;
3177;SDS011;38141;42.666;23.344;2023-04-15T02:24:44;5.87;;;4.67;;
3177;SDS011;38141;42.666;23.344;2023-04-15T02:27:14;5.03;;;4.20;;
3177;SDS011;38141;42.666;23.344;2023-04-15T02:29:42;11.57;;;5.67;;
3177;SDS011;38141;42.666;23.344;2023-04-15T02:32:09;7.87;;;4.77;;
3177;SDS011;38141;42.666;23.344;2023-04-15T02:34:38;6.50;;;5.00;;
3177;SDS011;38141;42.666;23.344;2023-04-15T02:37:07;11.00;;;4.70;;
3177;SDS011;38141;42.666;23.344;2023-04-15T02:39:34;8.50;;;4.73;;
3177;SDS011;38141;42.666;23.344;2023-04-15T02:42:01;11.70;;;5.83;;
3177;SDS011;38141;42.666;23.344;2023-04-15T02:44:29;7.10;;;4.80;;
3177;SDS011;38141;42.666;23.344;2023-04-15T02:46:56;7.40;;;4.90;;
3177;SDS011;38141;42.666;23.344;2023-04-15T02:49:23;6.50;;;4.83;;
3177;SDS011;38141;42.666;23.344;2023-04-15T02:51:52;6.87;;;5.10;;
3177;SDS011;38141;42.666;23.344;2023-04-15T02:54:22;6.97;;;5.23;;
3177;SDS011;38141;42.666;23.344;2023-04-15T02:56:50;9.60;;;5.90;;
3177;SDS011;38141;42.666;23.344;2023-04-15T02:59:19;6.77;;;4.93;;
3177;SDS011;38141;42.666;23.344;2023-04-15T03:01:46;8.30;;;5.30;;
3177;SDS011;38141;42.666;23.344;2023-04-15T03:04:13;9.03;;;6.00;;
3177;SDS011;38141;42.666;23.344;2023-04-15T03:06:40;8.10;;;6.20;;
3177;SDS011;38141;42.666;23.344;2023-04-15T03:09:08;11.13;;;7.13;;
3177;SDS011;38141;42.666;23.344;2023-04-15T03:11:35;11.33;;;6.77;;
3177;SDS011;38141;42.666;23.344;2023-04-15T03:14:04;10.83;;;6.70;;
3177;SDS011;38141;42.666;23.344;2023-04-15T03:16:31;9.90;;;6.47;;
3177;SDS011;38141;42.666;23.344;2023-04-15T03:18:58;9.67;;;7.43;;
3177;SDS011;38141;42.666;23.344;2023-04-15T03:21:25;10.13;;;6.67;;
3177;SDS011;38141;42.666;23.344;2023-04-15T03:23:51;11.27;;;6.80;;
3177;SDS011;38141;42.666;23.344;2023-04-15T03:26:26;11.73;;;7.57;;
3177;SDS011;38141;42.666;23.344;2023-04-15T03:28:54;14.70;;;7.67;;
3177;SDS011;38141;42.666;23.344;2023-04-15T03:31:21;13.70;;;7.33;;
3177;SDS011;38141;42.666;23.344;2023-04-15T03:33:48;11.13;;;6.50;;
3177;SDS011;38141;42.666;23.344;2023-04-15T03:36:15;9.60;;;6.70;;
3177;SDS011;38141;42.666;23.344;2023-04-15T03:38:42;10.53;;;7.47;;
3177;SDS011;38141;42.666;23.344;2023-04-15T03:41:09;11.20;;;7.03;;
3177;SDS011;38141;42.666;23.344;2023-04-15T03:43:39;11.80;;;7.07;;
3177;SDS011;38141;42.666;23.344;2023-04-15T03:46:06;12.37;;;6.73;;
3177;SDS011;38141;42.666;23.344;2023-04-15T03:48:33;10.47;;;6.90;;
3177;SDS011;38141;42.666;23.344;2023-04-15T03:50:59;12.13;;;6.93;;
3177;SDS011;38141;42.666;23.344;2023-04-15T03:53:26;10.80;;;7.20;;
3177;SDS011;38141;42.666;23.344;2023-04-15T03:55:53;10.33;;;6.47;;
3177;SDS011;38141;42.666;23.344;2023-04-15T03:58:20;12.77;;;7.40;;
3177;SDS011;38141;42.666;23.344;2023-04-15T04:00:49;13.37;;;6.87;;
3177;SDS011;38141;42.666;23.344;2023-04-15T04:03:16;8.00;;;6.13;;
3177;SDS011;38141;42.666;23.344;2023-04-15T04:05:43;13.50;;;7.93;;
3177;SDS011;38141;42.666;23.344;2023-04-15T04:08:10;17.27;;;7.13;;
3177;SDS011;38141;42.666;23.344;2023-04-15T04:10:38;16.93;;;7.57;;
3177;SDS011;38141;42.666;23.344;2023-04-15T04:13:04;10.40;;;6.27;;
3177;SDS011;38141;42.666;23.344;2023-04-15T04:15:31;14.37;;;7.43;;
3177;SDS011;38141;42.666;23.344;2023-04-15T04:18:00;12.90;;;7.60;;
3177;SDS011;38141;42.666;23.344;2023-04-15T04:20:26;10.60;;;7.10;;
3177;SDS011;38141;42.666;23.344;2023-04-15T04:22:53;11.30;;;6.97;;
3177;SDS011;38141;42.666;23.344;2023-04-15T04:25:20;10.77;;;6.47;;
3177;SDS011;38141;42.666;23.344;2023-04-15T04:27:48;8.93;;;6.60;;
3177;SDS011;38141;42.666;23.344;2023-04-15T04:30:15;9.10;;;6.97;;
3177;SDS011;38141;42.666;23.344;2023-04-15T04:32:42;11.53;;;7.23;;
3177;SDS011;38141;42.666;23.344;2023-04-15T04:35:11;12.17;;;7.40;;
3177;SDS011;38141;42.666;23.344;2023-04-15T04:37:39;9.83;;;6.37;;
3177;SDS011;38141;42.666;23.344;2023-04-15T04:40:07;12.53;;;7.50;;
3177;SDS011;38141;42.666;23.344;2023-04-15T04:42:34;12.30;;;8.10;;
3177;SDS011;38141;42.666;23.344;2023-04-15T04:45:01;11.03;;;7.83;;
3177;SDS011;38141;42.666;23.344;2023-04-15T04:47:28;11.30;;;7.30;;
3177;SDS011;38141;42.666;23.344;2023-04-15T04:49:55;8.03;;;7.13;;
3177;SDS011;38141;42.666;23.344;2023-04-15T04:52:23;12.30;;;7.80;;
3177;SDS011;38141;42.666;23.344;2023-04-15T04:54:50;11.80;;;7.50;;
3177;SDS011;38141;42.666;23.344;2023-04-15T04:57:17;11.40;;;7.37;;
3177;SDS011;38141;42.666;23.344;2023-04-15T04:59:43;11.40;;;7.53;;
3177;SDS011;38141;42.666;23.344;2023-04-15T05:02:10;12.17;;;7.80;;
3177;SDS011;38141;42.666;23.344;2023-04-15T05:04:37;11.53;;;7.50;;
3177;SDS011;38141;42.666;23.344;2023-04-15T05:07:05;12.03;;;7.20;;
3177;SDS011;38141;42.666;23.344;2023-04-15T05:09:34;10.57;;;7.63;;
3177;SDS011;38141;42.666;23.344;2023-04-15T05:12:00;12.30;;;8.27;;
3177;SDS011;38141;42.666;23.344;2023-04-15T05:14:27;13.03;;;8.10;;
3177;SDS011;38141;42.666;23.344;2023-04-15T05:16:54;10.53;;;7.70;;
3177;SDS011;38141;42.666;23.344;2023-04-15T05:19:21;12.73;;;7.90;;
3177;SDS011;38141;42.666;23.344;2023-04-15T05:21:48;12.97;;;7.00;;
3177;SDS011;38141;42.666;23.344;2023-04-15T05:24:15;14.17;;;7.50;;
3177;SDS011;38141;42.666;23.344;2023-04-15T05:26:43;8.65;;;6.32;;
3177;SDS011;38141;42.666;23.344;2023-04-15T05:29:10;9.10;;;6.65;;
3177;SDS011;38141;42.666;23.344;2023-04-15T05:31:37;8.70;;;6.47;;
3177;SDS011;38141;42.666;23.344;2023-04-15T05:34:04;7.63;;;6.40;;
3177;SDS011;38141;42.666;23.344;2023-04-15T05:36:32;8.63;;;6.57;;
3177;SDS011;38141;42.666;23.344;2023-04-15T05:39:00;9.55;;;6.88;;
3177;SDS011;38141;42.666;23.344;2023-04-15T05:41:27;12.85;;;7.22;;
3177;SDS011;38141;42.666;23.344;2023-04-15T05:43:55;8.95;;;7.22;;
3177;SDS011;38141;42.666;23.344;2023-04-15T05:46:22;8.75;;;6.22;;
3177;SDS011;38141;42.666;23.344;2023-04-15T05:48:48;11.43;;;6.60;;
3177;SDS011;38141;42.666;23.344;2023-04-15T05:51:15;8.45;;;6.13;;
3177;SDS011;38141;42.666;23.344;2023-04-15T05:53:42;10.50;;;6.80;;
3177;SDS011;38141;42.666;23.344;2023-04-15T05:56:10;10.77;;;6.35;;
3177;SDS011;38141;42.666;23.344;2023-04-15T05:58:36;7.47;;;6.35;;
3177;SDS011;38141;42.666;23.344;2023-04-15T06:01:05;7.55;;;6.72;;
3177;SDS011;38141;42.666;23.344;2023-04-15T06:03:32;9.20;;;6.63;;
3177;SDS011;38141;42.666;23.344;2023-04-15T06:05:59;8.27;;;6.03;;
3177;SDS011;38141;42.666;23.344;2023-04-15T06:08:26;6.50;;;4.20;;
3177;SDS011;38141;42.666;23.344;2023-04-15T06:10:53;5.68;;;4.85;;
3177;SDS011;38141;42.666;23.344;2023-04-15T06:13:20;7.28;;;4.95;;
3177;SDS011;38141;42.666;23.344;2023-04-15T06:15:47;6.90;;;5.13;;
3177;SDS011;38141;42.666;23.344;2023-04-15T06:18:15;7.85;;;4.93;;
3177;SDS011;38141;42.666;23.344;2023-04-15T06:20:42;8.05;;;5.70;;
3177;SDS011;38141;42.666;23.344;2023-04-15T06:23:09;6.70;;;5.30;;
3177;SDS011;38141;42.666;23.344;2023-04-15T06:25:38;6.82;;;5.00;;
3177;SDS011;38141;42.666;23.344;2023-04-15T06:28:05;7.47;;;5.18;;
3177;SDS011;38141;42.666;23.344;2023-04-15T06:30:32;5.82;;;4.68;;
3177;SDS011;38141;42.666;23.344;2023-04-15T06:33:00;6.25;;;5.20;;
3177;SDS011;38141;42.666;23.344;2023-04-15T06:35:30;7.72;;;4.88;;
3177;SDS011;38141;42.666;23.344;2023-04-15T06:37:57;9.43;;;4.70;;
3177;SDS011;38141;42.666;23.344;2023-04-15T06:40:24;5.78;;;5.18;;
3177;SDS011;38141;42.666;23.344;2023-04-15T06:42:51;8.20;;;5.05;;
3177;SDS011;38141;42.666;23.344;2023-04-15T06:45:18;6.72;;;4.82;;
3177;SDS011;38141;42.666;23.344;2023-04-15T06:47:44;6.65;;;4.90;;
3177;SDS011;38141;42.666;23.344;2023-04-15T06:50:11;6.20;;;4.90;;
3177;SDS011;38141;42.666;23.344;2023-04-15T06:52:39;6.35;;;4.78;;
3177;SDS011;38141;42.666;23.344;2023-04-15T06:55:07;7.70;;;4.82;;
3177;SDS011;38141;42.666;23.344;2023-04-15T06:57:34;7.10;;;5.07;;
3177;SDS011;38141;42.666;23.344;2023-04-15T07:00:00;6.50;;;5.22;;
3177;SDS011;38141;42.666;23.344;2023-04-15T07:02:29;9.30;;;5.43;;
3177;SDS011;38141;42.666;23.344;2023-04-15T07:04:56;9.63;;;5.10;;
3177;SDS011;38141;42.666;23.344;2023-04-15T07:07:23;8.50;;;5.40;;
3177;SDS011;38141;42.666;23.344;2023-04-15T07:09:51;6.03;;;4.57;;
3177;SDS011;38141;42.666;23.344;2023-04-15T07:12:19;7.10;;;4.57;;
3177;SDS011;38141;42.666;23.344;2023-04-15T07:14:46;7.93;;;5.65;;
3177;SDS011;38141;42.666;23.344;2023-04-15T07:17:13;6.85;;;4.90;;
3177;SDS011;38141;42.666;23.344;2023-04-15T07:19:40;7.18;;;5.50;;
3177;SDS011;38141;42.666;23.344;2023-04-15T07:22:07;9.98;;;5.45;;
3177;SDS011;38141;42.666;23.344;2023-04-15T07:24:34;7.93;;;5.40;;
3177;SDS011;38141;42.666;23.344;2023-04-15T07:27:02;6.32;;;4.70;;
3177;SDS011;38141;42.666;23.344;2023-04-15T07:29:28;9.40;;;5.70;;
3177;SDS011;38141;42.666;23.344;2023-04-15T07:31:55;8.38;;;5.00;;
3177;SDS011;38141;42.666;23.344;2023-04-15T07:34:22;5.63;;;5.03;;
3177;SDS011;38141;42.666;23.344;2023-04-15T07:36:49;11.05;;;4.65;;
3177;SDS011;38141;42.666;23.344;2023-04-15T07:39:16;6.35;;;4.80;;
3177;SDS011;38141;42.666;23.344;2023-04-15T07:41:43;6.75;;;4.50;;
3177;SDS011;38141;42.666;23.344;2023-04-15T07:44:11;7.93;;;4.95;;
3177;SDS011;38141;42.666;23.344;2023-04-15T07:46:38;6.85;;;5.07;;
3177;SDS011;38141;42.666;23.344;2023-04-15T07:49:05;7.18;;;4.78;;
3177;SDS011;38141;42.666;23.344;2023-04-15T07:51:32;8.68;;;5.22;;
3177;SDS011;38141;42.666;23.344;2023-04-15T07:53:59;7.65;;;4.65;;
3177;SDS011;38141;42.666;23.344;2023-04-15T07:56:27;6.18;;;4.57;;
3177;SDS011;38141;42.666;23.344;2023-04-15T07:58:54;7.85;;;4.30;;
3177;SDS011;38141;42.666;23.344;2023-04-15T08:01:22;5.97;;;4.27;;
3177;SDS011;38141;42.666;23.344;2023-04-15T08:03:48;7.43;;;4.90;;
3177;SDS011;38141;42.666;23.344;2023-04-15T08:06:16;5.43;;;4.00;;
3177;SDS011;38141;42.666;23.344;2023-04-15T08:08:43;6.27;;;4.57;;
3177;SDS011;38141;42.666;23.344;2023-04-15T08:11:10;6.87;;;4.63;;
3177;SDS011;38141;42.666;23.344;2023-04-15T08:13:37;5.93;;;4.30;;
3177;SDS011;38141;42.666;23.344;2023-04-15T08:16:15;5.80;;;3.90;;
3177;SDS011;38141;42.666;23.344;2023-04-15T08:18:45;4.50;;;3.60;;
3177;SDS011;38141;42.666;23.344;2023-04-15T08:21:12;8.27;;;4.03;;
3177;SDS011;38141;42.666;23.344;2023-04-15T08:23:39;5.73;;;4.30;;
3177;SDS011;38141;42.666;23.344;2023-04-15T08:26:05;6.20;;;4.53;;
3177;SDS011;38141;42.666;23.344;2023-04-15T08:28:32;9.27;;;4.90;;
3177;SDS011;38141;42.666;23.344;2023-04-15T08:30:59;4.47;;;3.63;;
3177;SDS011;38141;42.666;23.344;2023-04-15T08:33:26;6.60;;;4.50;;
3177;SDS011;38141;42.666;23.344;2023-04-15T08:35:55;5.00;;;4.00;;
3177;SDS011;38141;42.666;23.344;2023-04-15T08:38:24;6.00;;;4.17;;
3177;SDS011;38141;42.666;23.344;2023-04-15T08:40:51;6.00;;;3.75;;
3177;SDS011;38141;42.666;23.344;2023-04-15T08:43:19;5.00;;;3.47;;
3177;SDS011;38141;42.666;23.344;2023-04-15T08:45:48;4.20;;;3.40;;
3177;SDS011;38141;42.666;23.344;2023-04-15T08:48:16;3.47;;;2.50;;
3177;SDS011;38141;42.666;23.344;2023-04-15T08:50:43;7.65;;;3.78;;
3177;SDS011;38141;42.666;23.344;2023-04-15T08:53:11;6.75;;;3.92;;
3177;SDS011;38141;42.666;23.344;2023-04-15T08:55:41;5.95;;;3.25;;
3177;SDS011;38141;42.666;23.344;2023-04-15T08:58:09;5.63;;;3.55;;
3177;SDS011;38141;42.666;23.344;2023-04-15T09:00:36;6.30;;;3.47;;
3177;SDS011;38141;42.666;23.344;2023-04-15T09:03:03;5.53;;;3.95;;
3177;SDS011;38141;42.666;23.344;2023-04-15T09:05:31;3.05;;;2.85;;
3177;SDS011;38141;42.666;23.344;2023-04-15T09:07:59;3.35;;;2.88;;
3177;SDS011;38141;42.666;23.344;2023-04-15T09:10:28;3.40;;;2.55;;
3177;SDS011;38141;42.666;23.344;2023-04-15T09:12:55;5.90;;;2.60;;
3177;SDS011;38141;42.666;23.344;2023-04-15T09:15:22;5.53;;;3.47;;
3177;SDS011;38141;42.666;23.344;2023-04-15T09:17:51;4.50;;;2.40;;
3177;SDS011;38141;42.666;23.344;2023-04-15T09:20:18;3.72;;;2.40;;
3177;SDS011;38141;42.666;23.344;2023-04-15T09:22:46;2.90;;;2.05;;
3177;SDS011;38141;42.666;23.344;2023-04-15T09:25:28;6.47;;;2.60;;
3177;SDS011;38141;42.666;23.344;2023-04-15T09:27:55;3.20;;;2.30;;
3177;SDS011;38141;42.666;23.344;2023-04-15T09:30:23;4.85;;;2.50;;
3177;SDS011;38141;42.666;23.344;2023-04-15T09:32:50;3.47;;;2.30;;
3177;SDS011;38141;42.666;23.344;2023-04-15T09:35:18;2.95;;;2.30;;
3177;SDS011;38141;42.666;23.344;2023-04-15T09:37:45;4.85;;;2.70;;
3177;SDS011;38141;42.666;23.344;2023-04-15T09:40:12;9.30;;;6.72;;
3177;SDS011;38141;42.666;23.344;2023-04-15T09:42:55;4.25;;;2.65;;
3177;SDS011;38141;42.666;23.344;2023-04-15T09:45:23;3.03;;;2.40;;
3177;SDS011;38141;42.666;23.344;2023-04-15T09:47:50;3.33;;;2.35;;
3177;SDS011;38141;42.666;23.344;2023-04-15T09:50:17;7.00;;;2.80;;
3177;SDS011;38141;42.666;23.344;2023-04-15T09:52:45;3.42;;;1.90;;
3177;SDS011;38141;42.666;23.344;2023-04-15T09:55:12;3.03;;;2.10;;
3177;SDS011;38141;42.666;23.344;2023-04-15T09:57:41;4.78;;;2.45;;
3177;SDS011;38141;42.666;23.344;2023-04-15T10:00:10;3.20;;;2.20;;
3177;SDS011;38141;42.666;23.344;2023-04-15T10:02:38;3.70;;;2.42;;
3177;SDS011;38141;42.666;23.344;2023-04-15T10:05:09;4.22;;;2.67;;
3177;SDS011;38141;42.666;23.344;2023-04-15T10:07:37;3.80;;;2.38;;
3177;SDS011;38141;42.666;23.344;2023-04-15T10:10:05;3.50;;;2.20;;
3177;SDS011;38141;42.666;23.344;2023-04-15T10:12:33;3.60;;;2.08;;
3177;SDS011;38141;42.666;23.344;2023-04-15T10:15:03;3.05;;;1.30;;
3177;SDS011;38141;42.666;23.344;2023-04-15T10:17:32;1.95;;;1.30;;
3177;SDS011;38141;42.666;23.344;2023-04-15T10:20:01;2.05;;;1.00;;
3177;SDS011;38141;42.666;23.344;2023-04-15T10:22:29;2.75;;;1.40;;
3177;SDS011;38141;42.666;23.344;2023-04-15T10:24:57;5.25;;;1.48;;
3177;SDS011;38141;42.666;23.344;2023-04-15T10:27:24;2.03;;;1.30;;
3177;SDS011;38141;42.666;23.344;2023-04-15T10:29:53;2.72;;;1.48;;
3177;SDS011;38141;42.666;23.344;2023-04-15T10:32:20;2.28;;;1.40;;
3177;SDS011;38141;42.666;23.344;2023-04-15T10:34:50;2.10;;;1.60;;
3177;SDS011;38141;42.666;23.344;2023-04-15T10:37:20;2.15;;;1.60;;
3177;SDS011;38141;42.666;23.344;2023-04-15T10:39:48;3.43;;;1.53;;
3177;SDS011;38141;42.666;23.344;2023-04-15T10:42:15;3.27;;;1.60;;
3177;SDS011;38141;42.666;23.344;2023-04-15T10:44:44;3.70;;;1.40;;
3177;SDS011;38141;42.666;23.344;2023-04-15T10:47:16;2.07;;;1.70;;
3177;SDS011;38141;42.666;23.344;2023-04-15T10:49:45;2.97;;;1.60;;
3177;SDS011;38141;42.666;23.344;2023-04-15T10:52:14;3.72;;;1.58;;
3177;SDS011;38141;42.666;23.344;2023-04-15T10:54:43;2.13;;;1.43;;
3177;SDS011;38141;42.666;23.344;2023-04-15T10:57:13;1.70;;;1.60;;
3177;SDS011;38141;42.666;23.344;2023-04-15T11:02:39;4.87;;;2.13;;
3177;SDS011;38141;42.666;23.344;2023-04-15T11:05:07;2.50;;;1.63;;
3177;SDS011;38141;42.666;23.344;2023-04-15T11:07:39;3.63;;;1.53;;
3177;SDS011;38141;42.666;23.344;2023-04-15T11:13:20;1.50;;;1.40;;
3177;SDS011;38141;42.666;23.344;2023-04-15T11:15:49;1.90;;;1.40;;
3177;SDS011;38141;42.666;23.344;2023-04-15T11:18:17;3.30;;;1.37;;
3177;SDS011;38141;42.666;23.344;2023-04-15T11:20:46;2.90;;;1.40;;
3177;SDS011;38141;42.666;23.344;2023-04-15T11:23:17;1.40;;;1.10;;
3177;SDS011;38141;42.666;23.344;2023-04-15T11:25:44;3.17;;;1.73;;
3177;SDS011;38141;42.666;23.344;2023-04-15T11:28:12;2.40;;;1.70;;
3177;SDS011;38141;42.666;23.344;2023-04-15T11:30:39;2.53;;;1.30;;
3177;SDS011;38141;42.666;23.344;2023-04-15T11:33:08;4.27;;;1.60;;
3177;SDS011;38141;42.666;23.344;2023-04-15T11:35:36;2.13;;;1.40;;
3177;SDS011;38141;42.666;23.344;2023-04-15T11:38:07;2.80;;;1.20;;
3177;SDS011;38141;42.666;23.344;2023-04-15T11:40:37;1.40;;;1.23;;
3177;SDS011;38141;42.666;23.344;2023-04-15T11:43:05;1.60;;;1.20;;
3177;SDS011;38141;42.666;23.344;2023-04-15T11:45:33;1.27;;;1.00;;
3177;SDS011;38141;42.666;23.344;2023-04-15T11:48:07;2.07;;;1.40;;
3177;SDS011;38141;42.666;23.344;2023-04-15T11:50:34;1.97;;;1.30;;
3177;SDS011;38141;42.666;23.344;2023-04-15T11:53:04;1.67;;;1.00;;
3177;SDS011;38141;42.666;23.344;2023-04-15T11:55:41;2.17;;;1.40;;
3177;SDS011;38141;42.666;23.344;2023-04-15T11:58:10;3.07;;;1.10;;
3177;SDS011;38141;42.666;23.344;2023-04-15T12:00:38;2.27;;;1.30;;
3177;SDS011;38141;42.666;23.344;2023-04-15T12:03:12;3.67;;;1.30;;
3177;SDS011;38141;42.666;23.344;2023-04-15T12:11:34;4.70;;;1.40;;
3177;SDS011;38141;42.666;23.344;2023-04-15T12:14:03;3.50;;;1.40;;
3177;SDS011;38141;42.666;23.344;2023-04-15T12:16:32;2.97;;;1.47;;
3177;SDS011;38141;42.666;23.344;2023-04-15T12:19:03;2.30;;;1.13;;
3177;SDS011;38141;42.666;23.344;2023-04-15T12:21:33;1.53;;;1.30;;
3177;SDS011;38141;42.666;23.344;2023-04-15T12:24:02;3.07;;;1.10;;
3177;SDS011;38141;42.666;23.344;2023-04-15T12:26:32;1.97;;;1.30;;
3177;SDS011;38141;42.666;23.344;2023-04-15T12:29:03;2.13;;;1.60;;
3177;SDS011;38141;42.666;23.344;2023-04-15T12:31:31;1.73;;;1.27;;
3177;SDS011;38141;42.666;23.344;2023-04-15T12:33:59;1.97;;;1.27;;
3177;SDS011;38141;42.666;23.344;2023-04-15T12:36:27;1.27;;;1.00;;
3177;SDS011;38141;42.666;23.344;2023-04-15T12:38:57;2.30;;;1.37;;
3177;SDS011;38141;42.666;23.344;2023-04-15T12:41:23;2.43;;;1.47;;
3177;SDS011;38141;42.666;23.344;2023-04-15T12:43:52;2.60;;;1.10;;
3177;SDS011;38141;42.666;23.344;2023-04-15T12:46:19;1.40;;;1.20;;
3177;SDS011;38141;42.666;23.344;2023-04-15T12:48:46;3.13;;;1.43;;
3177;SDS011;38141;42.666;23.344;2023-04-15T12:51:13;1.10;;;1.00;;
3177;SDS011;38141;42.666;23.344;2023-04-15T12:53:39;1.93;;;1.20;;
3177;SDS011;38141;42.666;23.344;2023-04-15T12:56:06;1.37;;;1.27;;
3177;SDS011;38141;42.666;23.344;2023-04-15T12:58:33;1.73;;;1.20;;
3177;SDS011;38141;42.666;23.344;2023-04-15T13:01:01;2.53;;;1.33;;
3177;SDS011;38141;42.666;23.344;2023-04-15T13:03:28;1.70;;;1.10;;
3177;SDS011;38141;42.666;23.344;2023-04-15T13:05:55;1.43;;;1.00;;
3177;SDS011;38141;42.666;23.344;2023-04-15T13:08:23;1.40;;;1.00;;
3177;SDS011;38141;42.666;23.344;2023-04-15T13:10:49;2.53;;;1.30;;
3177;SDS011;38141;42.666;23.344;2023-04-15T13:13:16;4.50;;;1.40;;
3177;SDS011;38141;42.666;23.344;2023-04-15T13:15:43;6.93;;;1.37;;
3177;SDS011;38141;42.666;23.344;2023-04-15T13:18:12;2.53;;;1.40;;
3177;SDS011;38141;42.666;23.344;2023-04-15T13:20:39;2.23;;;1.53;;
3177;SDS011;38141;42.666;23.344;2023-04-15T13:23:06;1.93;;;1.13;;
3177;SDS011;38141;42.666;23.344;2023-04-15T13:25:33;1.30;;;1.20;;
3177;SDS011;38141;42.666;23.344;2023-04-15T13:28:00;2.80;;;1.27;;
3177;SDS011;38141;42.666;23.344;2023-04-15T13:30:27;3.50;;;1.40;;
3177;SDS011;38141;42.666;23.344;2023-04-15T13:32:54;1.40;;;1.20;;
3177;SDS011;38141;42.666;23.344;2023-04-15T13:35:22;1.70;;;1.10;;
3177;SDS011;38141;42.666;23.344;2023-04-15T13:37:49;0.97;;;0.87;;
3177;SDS011;38141;42.666;23.344;2023-04-15T13:40:15;1.23;;;1.00;;
3177;SDS011;38141;42.666;23.344;2023-04-15T13:42:42;1.40;;;1.10;;
3177;SDS011;38141;42.666;23.344;2023-04-15T13:45:12;2.10;;;1.27;;
3177;SDS011;38141;42.666;23.344;2023-04-15T13:47:40;1.47;;;1.00;;
3177;SDS011;38141;42.666;23.344;2023-04-15T13:50:07;1.50;;;1.10;;
3177;SDS011;38141;42.666;23.344;2023-04-15T13:52:36;1.20;;;1.00;;
3177;SDS011;38141;42.666;23.344;2023-04-15T13:55:03;1.30;;;1.03;;
3177;SDS011;38141;42.666;23.344;2023-04-15T13:57:31;3.37;;;1.00;;
3177;SDS011;38141;42.666;23.344;2023-04-15T13:59:58;1.83;;;1.20;;
3177;SDS011;38141;42.666;23.344;2023-04-15T14:02:25;2.70;;;1.20;;
3177;SDS011;38141;42.666;23.344;2023-04-15T14:04:52;2.40;;;1.20;;
3177;SDS011;38141;42.666;23.344;2023-04-15T14:07:19;1.83;;;1.20;;
3177;SDS011;38141;42.666;23.344;2023-04-15T14:09:47;2.27;;;1.70;;
3177;SDS011;38141;42.666;23.344;2023-04-15T14:12:15;1.20;;;1.10;;
3177;SDS011;38141;42.666;23.344;2023-04-15T14:14:43;2.07;;;1.20;;
3177;SDS011;38141;42.666;23.344;2023-04-15T14:17:11;2.80;;;1.27;;
3177;SDS011;38141;42.666;23.344;2023-04-15T14:19:37;1.47;;;1.20;;
3177;SDS011;38141;42.666;23.344;2023-04-15T14:22:04;1.63;;;1.10;;
3177;SDS011;38141;42.666;23.344;2023-04-15T14:24:31;1.63;;;1.20;;
3177;SDS011;38141;42.666;23.344;2023-04-15T14:26:59;2.47;;;1.27;;
3177;SDS011;38141;42.666;23.344;2023-04-15T14:29:26;1.40;;;1.30;;
3177;SDS011;38141;42.666;23.344;2023-04-15T14:31:53;3.70;;;1.23;;
3177;SDS011;38141;42.666;23.344;2023-04-15T14:34:21;1.20;;;1.10;;
3177;SDS011;38141;42.666;23.344;2023-04-15T14:36:49;2.07;;;1.33;;
3177;SDS011;38141;42.666;23.344;2023-04-15T14:39:16;3.57;;;1.50;;
3177;SDS011;38141;42.666;23.344;2023-04-15T14:41:43;3.57;;;1.33;;
3177;SDS011;38141;42.666;23.344;2023-04-15T14:44:11;1.20;;;1.10;;
3177;SDS011;38141;42.666;23.344;2023-04-15T14:46:38;2.67;;;1.00;;
3177;SDS011;38141;42.666;23.344;2023-04-15T14:49:06;2.60;;;1.40;;
3177;SDS011;38141;42.666;23.344;2023-04-15T14:51:33;2.03;;;1.40;;
3177;SDS011;38141;42.666;23.344;2023-04-15T14:54:00;2.90;;;1.40;;
3177;SDS011;38141;42.666;23.344;2023-04-15T14:56:26;1.40;;;1.10;;
3177;SDS011;38141;42.666;23.344;2023-04-15T14:58:54;2.17;;;1.40;;
3177;SDS011;38141;42.666;23.344;2023-04-15T15:01:23;2.60;;;1.33;;